sensor_id;sensor_type;location;lat;lon;timestamp;temperature;humidity
13330;DHT22;6734;48.638;8.896;2022-12-18T00:02:11;-12.40;99.90
13330;DHT22;6734;48.638;8.896;2022-12-18T00:04:37;-12.40;99.90
13330;DHT22;6734;48.638;8.896;2022-12-18T00:09:29;-12.30;99.90
13330;DHT22;6734;48.638;8.896;2022-12-18T00:11:54;-12.50;99.90
13330;DHT22;6734;48.638;8.896;2022-12-18T00:14:20;-12.20;99.90
13330;DHT22;6734;48.638;8.896;2022-12-18T00:16:46;-12.60;99.90
13330;DHT22;6734;48.638;8.896;2022-12-18T00:19:13;-12.60;99.90
13330;DHT22;6734;48.638;8.896;2022-12-18T00:21:39;-12.50;99.90
13330;DHT22;6734;48.638;8.896;2022-12-18T00:26:33;-12.60;99.90
13330;DHT22;6734;48.638;8.896;2022-12-18T00:29:03;-12.70;99.90
13330;DHT22;6734;48.638;8.896;2022-12-18T00:33:55;-12.90;99.90
13330;DHT22;6734;48.638;8.896;2022-12-18T00:36:23;-13.00;99.90
13330;DHT22;6734;48.638;8.896;2022-12-18T00:38:49;-12.90;99.90
13330;DHT22;6734;48.638;8.896;2022-12-18T00:41:16;-12.40;99.90
13330;DHT22;6734;48.638;8.896;2022-12-18T00:44:04;-12.10;99.90
13330;DHT22;6734;48.638;8.896;2022-12-18T00:46:30;-12.40;99.90
13330;DHT22;6734;48.638;8.896;2022-12-18T00:51:22;-12.70;99.90
13330;DHT22;6734;48.638;8.896;2022-12-18T01:01:06;-12.50;99.90
13330;DHT22;6734;48.638;8.896;2022-12-18T01:05:58;-12.10;99.90
13330;DHT22;6734;48.638;8.896;2022-12-18T01:08:24;-12.40;99.90
13330;DHT22;6734;48.638;8.896;2022-12-18T01:10:49;-12.60;99.90
13330;DHT22;6734;48.638;8.896;2022-12-18T01:13:15;-12.50;99.90
13330;DHT22;6734;48.638;8.896;2022-12-18T01:20:33;-12.60;99.90
13330;DHT22;6734;48.638;8.896;2022-12-18T01:25:24;-12.80;99.90
13330;DHT22;6734;48.638;8.896;2022-12-18T01:35:08;-13.10;99.90
13330;DHT22;6734;48.638;8.896;2022-12-18T01:40:00;-12.70;99.90
13330;DHT22;6734;48.638;8.896;2022-12-18T01:49:56;-12.70;99.90
13330;DHT22;6734;48.638;8.896;2022-12-18T01:52:25;-12.70;99.90
13330;DHT22;6734;48.638;8.896;2022-12-18T01:54:52;-12.80;99.90
13330;DHT22;6734;48.638;8.896;2022-12-18T01:57:18;-12.90;99.90
13330;DHT22;6734;48.638;8.896;2022-12-18T01:59:47;-12.80;99.90
13330;DHT22;6734;48.638;8.896;2022-12-18T02:02:16;-12.80;99.90
13330;DHT22;6734;48.638;8.896;2022-12-18T02:07:43;-13.00;99.90
13330;DHT22;6734;48.638;8.896;2022-12-18T02:10:20;-12.90;99.90
13330;DHT22;6734;48.638;8.896;2022-12-18T02:13:01;-12.90;99.90
13330;DHT22;6734;48.638;8.896;2022-12-18T02:18:03;-13.00;99.90
13330;DHT22;6734;48.638;8.896;2022-12-18T02:20:44;-12.90;99.90
13330;DHT22;6734;48.638;8.896;2022-12-18T02:26:18;-12.90;99.90
13330;DHT22;6734;48.638;8.896;2022-12-18T02:31:27;-12.60;99.90
13330;DHT22;6734;48.638;8.896;2022-12-18T02:33:59;-12.50;99.90
13330;DHT22;6734;48.638;8.896;2022-12-18T02:36:27;-12.40;99.90
13330;DHT22;6734;48.638;8.896;2022-12-18T02:38:55;-12.40;99.90
13330;DHT22;6734;48.638;8.896;2022-12-18T02:41:25;-12.40;99.90
13330;DHT22;6734;48.638;8.896;2022-12-18T02:44:00;-12.30;99.90
13330;DHT22;6734;48.638;8.896;2022-12-18T02:46:34;-9.00;99.90
13330;DHT22;6734;48.638;8.896;2022-12-18T02:57:41;-12.00;99.90
13330;DHT22;6734;48.638;8.896;2022-12-18T03:00:16;-11.90;99.90
13330;DHT22;6734;48.638;8.896;2022-12-18T03:02:57;-11.80;99.90
13330;DHT22;6734;48.638;8.896;2022-12-18T03:08:06;-11.60;99.90
13330;DHT22;6734;48.638;8.896;2022-12-18T03:10:38;-11.40;99.90
13330;DHT22;6734;48.638;8.896;2022-12-18T03:13:08;-11.40;99.90
13330;DHT22;6734;48.638;8.896;2022-12-18T03:15:42;-11.40;99.90
13330;DHT22;6734;48.638;8.896;2022-12-18T03:18:32;-11.40;99.90
13330;DHT22;6734;48.638;8.896;2022-12-18T03:21:03;-11.30;99.90
13330;DHT22;6734;48.638;8.896;2022-12-18T03:23:35;-11.40;99.90
13330;DHT22;6734;48.638;8.896;2022-12-18T03:26:07;-10.90;99.90
13330;DHT22;6734;48.638;8.896;2022-12-18T03:28:38;-10.80;99.90
13330;DHT22;6734;48.638;8.896;2022-12-18T03:31:07;-10.80;99.90
13330;DHT22;6734;48.638;8.896;2022-12-18T03:33:41;-10.90;99.90
13330;DHT22;6734;48.638;8.896;2022-12-18T03:38:33;-11.10;99.90
13330;DHT22;6734;48.638;8.896;2022-12-18T03:41:09;-11.20;99.90
13330;DHT22;6734;48.638;8.896;2022-12-18T03:46:56;-11.00;99.90
13330;DHT22;6734;48.638;8.896;2022-12-18T03:49:31;-11.00;99.90
13330;DHT22;6734;48.638;8.896;2022-12-18T03:52:06;-10.70;99.90
13330;DHT22;6734;48.638;8.896;2022-12-18T03:54:35;-10.30;99.90
13330;DHT22;6734;48.638;8.896;2022-12-18T03:57:07;-10.30;99.90
13330;DHT22;6734;48.638;8.896;2022-12-18T03:59:35;-10.30;99.90
13330;DHT22;6734;48.638;8.896;2022-12-18T04:02:02;-10.20;99.90
13330;DHT22;6734;48.638;8.896;2022-12-18T04:04:31;-10.20;99.90
13330;DHT22;6734;48.638;8.896;2022-12-18T04:14:15;-9.80;99.90
13330;DHT22;6734;48.638;8.896;2022-12-18T04:16:41;-9.60;99.90
13330;DHT22;6734;48.638;8.896;2022-12-18T04:21:32;-9.70;99.90
13330;DHT22;6734;48.638;8.896;2022-12-18T04:23:58;-9.70;99.90
13330;DHT22;6734;48.638;8.896;2022-12-18T04:28:49;-9.60;99.90
13330;DHT22;6734;48.638;8.896;2022-12-18T04:33:41;-9.40;99.90
13330;DHT22;6734;48.638;8.896;2022-12-18T04:45:50;-9.10;99.90
13330;DHT22;6734;48.638;8.896;2022-12-18T04:48:16;-9.00;99.90
13330;DHT22;6734;48.638;8.896;2022-12-18T04:53:08;-8.60;99.90
13330;DHT22;6734;48.638;8.896;2022-12-18T04:55:33;-8.60;99.90
13330;DHT22;6734;48.638;8.896;2022-12-18T04:57:59;-8.50;99.90
13330;DHT22;6734;48.638;8.896;2022-12-18T05:00:24;-8.80;99.90
13330;DHT22;6734;48.638;8.896;2022-12-18T05:02:50;-9.00;99.90
13330;DHT22;6734;48.638;8.896;2022-12-18T05:05:15;-8.90;99.90
13330;DHT22;6734;48.638;8.896;2022-12-18T05:07:41;-9.00;99.90
13330;DHT22;6734;48.638;8.896;2022-12-18T05:10:07;-9.00;99.90
13330;DHT22;6734;48.638;8.896;2022-12-18T05:12:33;-8.90;99.90
13330;DHT22;6734;48.638;8.896;2022-12-18T05:14:58;-8.90;99.90
13330;DHT22;6734;48.638;8.896;2022-12-18T05:34:26;-9.50;99.90
13330;DHT22;6734;48.638;8.896;2022-12-18T05:46:36;-10.00;99.90
13330;DHT22;6734;48.638;8.896;2022-12-18T05:49:02;-10.20;99.90
13330;DHT22;6734;48.638;8.896;2022-12-18T05:51:27;-10.10;99.90
13330;DHT22;6734;48.638;8.896;2022-12-18T05:56:21;-9.60;99.90
13330;DHT22;6734;48.638;8.896;2022-12-18T05:58:47;-9.80;99.90
13330;DHT22;6734;48.638;8.896;2022-12-18T06:01:22;-10.00;99.90
13330;DHT22;6734;48.638;8.896;2022-12-18T06:03:47;-9.90;99.90
13330;DHT22;6734;48.638;8.896;2022-12-18T06:06:21;-10.10;99.90
13330;DHT22;6734;48.638;8.896;2022-12-18T06:08:48;-10.20;99.90
13330;DHT22;6734;48.638;8.896;2022-12-18T06:11:18;-10.30;99.90
13330;DHT22;6734;48.638;8.896;2022-12-18T06:21:01;-10.70;99.90
13330;DHT22;6734;48.638;8.896;2022-12-18T06:28:21;-10.60;99.90
13330;DHT22;6734;48.638;8.896;2022-12-18T06:30:48;-10.60;99.90
13330;DHT22;6734;48.638;8.896;2022-12-18T06:33:15;-10.10;99.90
13330;DHT22;6734;48.638;8.896;2022-12-18T06:35:41;-10.10;99.90
13330;DHT22;6734;48.638;8.896;2022-12-18T06:38:07;-10.40;99.90
13330;DHT22;6734;48.638;8.896;2022-12-18T06:40:33;-10.70;99.90
13330;DHT22;6734;48.638;8.896;2022-12-18T06:42:59;-10.90;99.90
13330;DHT22;6734;48.638;8.896;2022-12-18T06:52:42;-11.20;99.90
13330;DHT22;6734;48.638;8.896;2022-12-18T06:55:09;-11.20;99.90
13330;DHT22;6734;48.638;8.896;2022-12-18T07:00:04;-11.60;99.90
13330;DHT22;6734;48.638;8.896;2022-12-18T07:04:56;-11.60;99.90
13330;DHT22;6734;48.638;8.896;2022-12-18T07:09:49;-11.70;99.90
13330;DHT22;6734;48.638;8.896;2022-12-18T07:12:15;-11.90;99.90
13330;DHT22;6734;48.638;8.896;2022-12-18T07:26:50;-11.50;99.90
13330;DHT22;6734;48.638;8.896;2022-12-18T07:34:14;-11.60;99.90
13330;DHT22;6734;48.638;8.896;2022-12-18T07:36:40;-11.60;99.90
13330;DHT22;6734;48.638;8.896;2022-12-18T07:41:32;-11.70;99.90
13330;DHT22;6734;48.638;8.896;2022-12-18T07:48:49;-11.90;99.90
13330;DHT22;6734;48.638;8.896;2022-12-18T07:51:15;-12.10;99.90
13330;DHT22;6734;48.638;8.896;2022-12-18T07:56:09;-12.20;99.90
13330;DHT22;6734;48.638;8.896;2022-12-18T07:58:36;-12.00;99.90
13330;DHT22;6734;48.638;8.896;2022-12-18T08:01:11;-12.10;99.90
13330;DHT22;6734;48.638;8.896;2022-12-18T08:03:39;-12.10;99.90
13330;DHT22;6734;48.638;8.896;2022-12-18T08:06:07;-12.10;99.90
13330;DHT22;6734;48.638;8.896;2022-12-18T08:11:00;-11.80;99.90
13330;DHT22;6734;48.638;8.896;2022-12-18T08:13:26;-11.80;99.90
13330;DHT22;6734;48.638;8.896;2022-12-18T08:16:00;-11.90;99.90
13330;DHT22;6734;48.638;8.896;2022-12-18T08:23:19;-11.60;99.90
13330;DHT22;6734;48.638;8.896;2022-12-18T08:30:36;-11.40;99.90
13330;DHT22;6734;48.638;8.896;2022-12-18T08:42:46;-11.10;99.90
13330;DHT22;6734;48.638;8.896;2022-12-18T08:50:23;-11.00;99.90
13330;DHT22;6734;48.638;8.896;2022-12-18T08:57:40;-10.40;99.90
13330;DHT22;6734;48.638;8.896;2022-12-18T09:00:06;-10.30;99.90
13330;DHT22;6734;48.638;8.896;2022-12-18T09:07:24;-9.90;99.90
13330;DHT22;6734;48.638;8.896;2022-12-18T09:22:00;-9.40;99.90
13330;DHT22;6734;48.638;8.896;2022-12-18T09:26:55;-9.30;99.90
13330;DHT22;6734;48.638;8.896;2022-12-18T09:44:10;-8.90;99.90
13330;DHT22;6734;48.638;8.896;2022-12-18T09:46:42;-9.00;99.90
13330;DHT22;6734;48.638;8.896;2022-12-18T09:49:13;-9.00;99.90
13330;DHT22;6734;48.638;8.896;2022-12-18T09:51:54;-8.90;99.90
13330;DHT22;6734;48.638;8.896;2022-12-18T09:54:35;-8.80;99.90
13330;DHT22;6734;48.638;8.896;2022-12-18T09:57:04;-8.60;99.90
13330;DHT22;6734;48.638;8.896;2022-12-18T09:59:36;-8.70;99.90
13330;DHT22;6734;48.638;8.896;2022-12-18T10:02:16;-8.70;99.90
13330;DHT22;6734;48.638;8.896;2022-12-18T10:04:42;-8.70;99.90
13330;DHT22;6734;48.638;8.896;2022-12-18T10:07:19;-8.50;99.90
13330;DHT22;6734;48.638;8.896;2022-12-18T10:13:16;-8.50;99.90
13330;DHT22;6734;48.638;8.896;2022-12-18T10:20:45;-8.40;99.90
13330;DHT22;6734;48.638;8.896;2022-12-18T10:26:02;-8.10;99.90
13330;DHT22;6734;48.638;8.896;2022-12-18T10:28:30;-7.90;99.90
13330;DHT22;6734;48.638;8.896;2022-12-18T10:30:56;-7.70;99.90
13330;DHT22;6734;48.638;8.896;2022-12-18T10:33:24;-7.70;99.90
13330;DHT22;6734;48.638;8.896;2022-12-18T10:35:54;-7.60;99.90
13330;DHT22;6734;48.638;8.896;2022-12-18T10:38:23;-7.60;99.90
13330;DHT22;6734;48.638;8.896;2022-12-18T10:40:57;-6.20;99.90
13330;DHT22;6734;48.638;8.896;2022-12-18T10:43:28;-7.30;99.90
13330;DHT22;6734;48.638;8.896;2022-12-18T10:53:52;-7.00;99.90
13330;DHT22;6734;48.638;8.896;2022-12-18T10:56:20;-6.90;99.90
13330;DHT22;6734;48.638;8.896;2022-12-18T10:58:55;-7.00;99.90
13330;DHT22;6734;48.638;8.896;2022-12-18T11:01:21;-6.60;99.90
13330;DHT22;6734;48.638;8.896;2022-12-18T11:04:01;-6.50;99.90
13330;DHT22;6734;48.638;8.896;2022-12-18T11:06:26;-6.30;99.90
13330;DHT22;6734;48.638;8.896;2022-12-18T11:09:04;-6.20;99.90
13330;DHT22;6734;48.638;8.896;2022-12-18T11:11:31;-5.90;99.90
13330;DHT22;6734;48.638;8.896;2022-12-18T11:14:06;-5.90;99.90
13330;DHT22;6734;48.638;8.896;2022-12-18T11:16:51;-5.80;99.90
13330;DHT22;6734;48.638;8.896;2022-12-18T11:19:33;-5.70;99.90
13330;DHT22;6734;48.638;8.896;2022-12-18T11:22:01;-5.50;99.90
13330;DHT22;6734;48.638;8.896;2022-12-18T11:24:33;-5.40;99.90
13330;DHT22;6734;48.638;8.896;2022-12-18T11:27:16;-4.90;99.90
13330;DHT22;6734;48.638;8.896;2022-12-18T11:29:43;-4.10;99.90
13330;DHT22;6734;48.638;8.896;2022-12-18T11:34:44;-3.10;99.90
13330;DHT22;6734;48.638;8.896;2022-12-18T11:37:13;-3.20;99.90
13330;DHT22;6734;48.638;8.896;2022-12-18T11:39:45;-2.90;99.90
13330;DHT22;6734;48.638;8.896;2022-12-18T11:43:14;-2.60;99.90
13330;DHT22;6734;48.638;8.896;2022-12-18T11:48:05;-1.70;99.90
13330;DHT22;6734;48.638;8.896;2022-12-18T11:50:56;-1.80;99.90
13330;DHT22;6734;48.638;8.896;2022-12-18T11:53:24;-1.60;99.90
13330;DHT22;6734;48.638;8.896;2022-12-18T11:58:45;-1.30;99.90
13330;DHT22;6734;48.638;8.896;2022-12-18T12:06:36;-1.30;99.90
13330;DHT22;6734;48.638;8.896;2022-12-18T12:15:06;-1.50;99.90
13330;DHT22;6734;48.638;8.896;2022-12-18T12:17:43;-1.70;99.90
13330;DHT22;6734;48.638;8.896;2022-12-18T12:20:16;-1.80;99.90
13330;DHT22;6734;48.638;8.896;2022-12-18T12:22:54;-1.90;99.90
13330;DHT22;6734;48.638;8.896;2022-12-18T12:25:44;-2.00;99.90
13330;DHT22;6734;48.638;8.896;2022-12-18T12:36:42;-1.30;99.90
13330;DHT22;6734;48.638;8.896;2022-12-18T12:39:20;-1.30;99.90
13330;DHT22;6734;48.638;8.896;2022-12-18T12:44:38;-0.70;99.90
13330;DHT22;6734;48.638;8.896;2022-12-18T12:47:13;-0.40;99.90
13330;DHT22;6734;48.638;8.896;2022-12-18T12:49:40;-0.90;99.90
13330;DHT22;6734;48.638;8.896;2022-12-18T12:52:15;-1.00;99.90
13330;DHT22;6734;48.638;8.896;2022-12-18T12:54:43;-0.90;99.90
13330;DHT22;6734;48.638;8.896;2022-12-18T12:57:27;-1.20;99.90
13330;DHT22;6734;48.638;8.896;2022-12-18T13:00:09;-1.10;99.90
13330;DHT22;6734;48.638;8.896;2022-12-18T13:02:44;-1.00;99.90
13330;DHT22;6734;48.638;8.896;2022-12-18T13:05:21;-1.30;99.90
13330;DHT22;6734;48.638;8.896;2022-12-18T13:08:09;-1.00;99.90
13330;DHT22;6734;48.638;8.896;2022-12-18T13:10:40;-0.90;99.90
13330;DHT22;6734;48.638;8.896;2022-12-18T13:20:48;-0.40;99.90
13330;DHT22;6734;48.638;8.896;2022-12-18T13:25:57;-0.30;99.90
13330;DHT22;6734;48.638;8.896;2022-12-18T13:30:55;-0.30;99.90
13330;DHT22;6734;48.638;8.896;2022-12-18T13:36:16;-0.10;99.90
13330;DHT22;6734;48.638;8.896;2022-12-18T13:39:09;-0.50;99.90
13330;DHT22;6734;48.638;8.896;2022-12-18T13:41:35;-1.20;99.90
13330;DHT22;6734;48.638;8.896;2022-12-18T13:46:47;-2.30;99.90
13330;DHT22;6734;48.638;8.896;2022-12-18T13:51:41;-2.80;99.90
13330;DHT22;6734;48.638;8.896;2022-12-18T13:59:37;-2.10;99.90
13330;DHT22;6734;48.638;8.896;2022-12-18T14:02:17;-2.20;99.90
13330;DHT22;6734;48.638;8.896;2022-12-18T14:04:45;-2.60;99.90
13330;DHT22;6734;48.638;8.896;2022-12-18T14:07:26;-2.70;99.90
13330;DHT22;6734;48.638;8.896;2022-12-18T14:12:26;-2.30;99.90
13330;DHT22;6734;48.638;8.896;2022-12-18T14:15:57;-2.10;99.90
13330;DHT22;6734;48.638;8.896;2022-12-18T14:18:26;-1.90;99.90
13330;DHT22;6734;48.638;8.896;2022-12-18T14:20:57;-2.10;99.90
13330;DHT22;6734;48.638;8.896;2022-12-18T14:23:41;-1.70;99.90
13330;DHT22;6734;48.638;8.896;2022-12-18T14:26:39;-1.40;99.90
13330;DHT22;6734;48.638;8.896;2022-12-18T14:29:24;-1.70;99.90
13330;DHT22;6734;48.638;8.896;2022-12-18T14:34:35;-2.00;99.90
13330;DHT22;6734;48.638;8.896;2022-12-18T14:37:00;-1.10;99.90
13330;DHT22;6734;48.638;8.896;2022-12-18T14:41:52;-1.50;99.90
13330;DHT22;6734;48.638;8.896;2022-12-18T14:44:18;-2.30;99.90
13330;DHT22;6734;48.638;8.896;2022-12-18T14:46:45;-2.70;99.90
13330;DHT22;6734;48.638;8.896;2022-12-18T14:49:27;-3.30;99.90
13330;DHT22;6734;48.638;8.896;2022-12-18T14:52:05;-4.00;99.90
13330;DHT22;6734;48.638;8.896;2022-12-18T14:54:32;-3.90;99.90
13330;DHT22;6734;48.638;8.896;2022-12-18T14:57:04;-4.10;99.90
13330;DHT22;6734;48.638;8.896;2022-12-18T14:59:31;-4.30;99.90
13330;DHT22;6734;48.638;8.896;2022-12-18T15:02:17;-4.40;99.90
13330;DHT22;6734;48.638;8.896;2022-12-18T15:07:20;-4.50;99.90
13330;DHT22;6734;48.638;8.896;2022-12-18T15:10:12;-4.70;99.90
13330;DHT22;6734;48.638;8.896;2022-12-18T15:12:49;-5.00;99.90
13330;DHT22;6734;48.638;8.896;2022-12-18T15:20:56;-5.20;99.90
13330;DHT22;6734;48.638;8.896;2022-12-18T15:26:09;-5.30;99.90
13330;DHT22;6734;48.638;8.896;2022-12-18T15:28:49;-5.40;99.90
13330;DHT22;6734;48.638;8.896;2022-12-18T15:33:43;-5.60;99.90
13330;DHT22;6734;48.638;8.896;2022-12-18T15:36:14;-5.50;99.90
13330;DHT22;6734;48.638;8.896;2022-12-18T15:46:07;-5.80;99.90
13330;DHT22;6734;48.638;8.896;2022-12-18T15:48:39;-5.80;99.90
13330;DHT22;6734;48.638;8.896;2022-12-18T15:51:07;-5.90;99.90
13330;DHT22;6734;48.638;8.896;2022-12-18T15:53:35;-6.00;99.90
13330;DHT22;6734;48.638;8.896;2022-12-18T15:58:45;-6.00;99.90
13330;DHT22;6734;48.638;8.896;2022-12-18T16:03:39;-6.10;99.90
13330;DHT22;6734;48.638;8.896;2022-12-18T16:06:05;-6.00;99.90
13330;DHT22;6734;48.638;8.896;2022-12-18T16:10:57;-6.00;99.90
13330;DHT22;6734;48.638;8.896;2022-12-18T16:13:24;-6.00;99.90
13330;DHT22;6734;48.638;8.896;2022-12-18T16:15:49;-6.00;99.90
13330;DHT22;6734;48.638;8.896;2022-12-18T16:18:15;-5.90;99.90
13330;DHT22;6734;48.638;8.896;2022-12-18T16:20:40;-5.90;99.90
13330;DHT22;6734;48.638;8.896;2022-12-18T16:23:06;-5.90;99.90
13330;DHT22;6734;48.638;8.896;2022-12-18T16:25:32;-6.00;99.90
13330;DHT22;6734;48.638;8.896;2022-12-18T16:27:58;-5.90;99.90
13330;DHT22;6734;48.638;8.896;2022-12-18T16:30:28;-5.90;99.90
13330;DHT22;6734;48.638;8.896;2022-12-18T16:32:59;-5.90;99.90
13330;DHT22;6734;48.638;8.896;2022-12-18T16:35:26;-5.80;99.90
13330;DHT22;6734;48.638;8.896;2022-12-18T16:37:51;-5.80;99.90
13330;DHT22;6734;48.638;8.896;2022-12-18T16:40:17;-5.70;99.90
13330;DHT22;6734;48.638;8.896;2022-12-18T16:42:44;-5.70;99.90
13330;DHT22;6734;48.638;8.896;2022-12-18T16:45:16;-5.80;99.90
13330;DHT22;6734;48.638;8.896;2022-12-18T16:47:42;-5.70;99.90
13330;DHT22;6734;48.638;8.896;2022-12-18T16:50:09;-5.70;99.90
13330;DHT22;6734;48.638;8.896;2022-12-18T16:52:35;-5.70;99.90
13330;DHT22;6734;48.638;8.896;2022-12-18T16:55:00;-5.60;99.90
13330;DHT22;6734;48.638;8.896;2022-12-18T16:57:26;-5.60;99.90
13330;DHT22;6734;48.638;8.896;2022-12-18T16:59:52;-5.60;99.90
13330;DHT22;6734;48.638;8.896;2022-12-18T17:02:23;-5.60;99.90
13330;DHT22;6734;48.638;8.896;2022-12-18T17:04:51;-5.60;99.90
13330;DHT22;6734;48.638;8.896;2022-12-18T17:07:17;-5.60;99.90
13330;DHT22;6734;48.638;8.896;2022-12-18T17:09:43;-5.60;99.90
13330;DHT22;6734;48.638;8.896;2022-12-18T17:12:09;-5.60;99.90
13330;DHT22;6734;48.638;8.896;2022-12-18T17:14:35;-5.60;99.90
13330;DHT22;6734;48.638;8.896;2022-12-18T17:17:01;-5.60;99.90
13330;DHT22;6734;48.638;8.896;2022-12-18T17:19:27;-5.60;99.90
13330;DHT22;6734;48.638;8.896;2022-12-18T17:21:53;-5.60;99.90
13330;DHT22;6734;48.638;8.896;2022-12-18T17:24:19;-5.50;99.90
13330;DHT22;6734;48.638;8.896;2022-12-18T17:26:45;-5.50;99.90
13330;DHT22;6734;48.638;8.896;2022-12-18T17:29:14;-5.50;99.90
13330;DHT22;6734;48.638;8.896;2022-12-18T17:31:39;-5.50;99.90
13330;DHT22;6734;48.638;8.896;2022-12-18T17:34:05;-5.40;99.90
13330;DHT22;6734;48.638;8.896;2022-12-18T17:36:31;-5.40;99.90
13330;DHT22;6734;48.638;8.896;2022-12-18T17:38:58;-5.40;99.90
13330;DHT22;6734;48.638;8.896;2022-12-18T17:41:25;-5.40;99.90
13330;DHT22;6734;48.638;8.896;2022-12-18T17:43:52;-5.30;99.90
13330;DHT22;6734;48.638;8.896;2022-12-18T17:46:18;-5.30;99.90
13330;DHT22;6734;48.638;8.896;2022-12-18T17:48:44;-5.30;99.90
13330;DHT22;6734;48.638;8.896;2022-12-18T17:51:10;-5.30;99.90
13330;DHT22;6734;48.638;8.896;2022-12-18T17:53:37;-5.30;99.90
13330;DHT22;6734;48.638;8.896;2022-12-18T17:56:04;-5.30;99.90
13330;DHT22;6734;48.638;8.896;2022-12-18T17:58:31;-5.30;99.90
13330;DHT22;6734;48.638;8.896;2022-12-18T18:00:57;-5.30;99.90
13330;DHT22;6734;48.638;8.896;2022-12-18T18:03:23;-5.40;99.90
13330;DHT22;6734;48.638;8.896;2022-12-18T18:05:57;-5.20;99.90
13330;DHT22;6734;48.638;8.896;2022-12-18T18:08:23;-5.10;99.90
13330;DHT22;6734;48.638;8.896;2022-12-18T18:10:50;-5.10;99.90
13330;DHT22;6734;48.638;8.896;2022-12-18T18:13:19;-5.20;99.90
13330;DHT22;6734;48.638;8.896;2022-12-18T18:16:04;-5.20;99.90
13330;DHT22;6734;48.638;8.896;2022-12-18T18:18:30;-5.20;99.90
13330;DHT22;6734;48.638;8.896;2022-12-18T18:20:56;-5.20;99.90
13330;DHT22;6734;48.638;8.896;2022-12-18T18:23:24;-5.20;99.90
13330;DHT22;6734;48.638;8.896;2022-12-18T18:25:53;-5.20;99.90
13330;DHT22;6734;48.638;8.896;2022-12-18T18:28:18;-5.10;99.90
13330;DHT22;6734;48.638;8.896;2022-12-18T18:30:44;-5.10;99.90
13330;DHT22;6734;48.638;8.896;2022-12-18T18:33:10;-5.10;99.90
13330;DHT22;6734;48.638;8.896;2022-12-18T18:35:41;-5.00;99.90
13330;DHT22;6734;48.638;8.896;2022-12-18T18:38:07;-5.00;99.90
13330;DHT22;6734;48.638;8.896;2022-12-18T18:40:33;-4.90;99.90
13330;DHT22;6734;48.638;8.896;2022-12-18T18:42:58;-3.00;99.90
13330;DHT22;6734;48.638;8.896;2022-12-18T18:45:24;-4.90;99.90
13330;DHT22;6734;48.638;8.896;2022-12-18T18:47:50;-4.90;99.90
13330;DHT22;6734;48.638;8.896;2022-12-18T18:50:15;-4.80;99.90
13330;DHT22;6734;48.638;8.896;2022-12-18T18:52:41;-4.90;99.90
13330;DHT22;6734;48.638;8.896;2022-12-18T18:55:07;-4.90;99.90
13330;DHT22;6734;48.638;8.896;2022-12-18T18:57:33;-4.90;99.90
13330;DHT22;6734;48.638;8.896;2022-12-18T18:59:58;-4.80;99.90
13330;DHT22;6734;48.638;8.896;2022-12-18T19:02:24;-4.80;99.90
13330;DHT22;6734;48.638;8.896;2022-12-18T19:04:49;-4.80;99.90
13330;DHT22;6734;48.638;8.896;2022-12-18T19:09:41;-4.60;99.90
13330;DHT22;6734;48.638;8.896;2022-12-18T19:12:08;-4.60;99.90
13330;DHT22;6734;48.638;8.896;2022-12-18T19:14:53;-4.70;99.90
13330;DHT22;6734;48.638;8.896;2022-12-18T19:17:19;-4.60;99.90
13330;DHT22;6734;48.638;8.896;2022-12-18T19:19:44;-4.70;99.90
13330;DHT22;6734;48.638;8.896;2022-12-18T19:22:10;-4.50;99.90
13330;DHT22;6734;48.638;8.896;2022-12-18T19:24:36;-4.60;99.90
13330;DHT22;6734;48.638;8.896;2022-12-18T19:27:01;-4.00;99.90
13330;DHT22;6734;48.638;8.896;2022-12-18T19:29:27;-4.60;99.90
13330;DHT22;6734;48.638;8.896;2022-12-18T19:31:52;-4.60;99.90
13330;DHT22;6734;48.638;8.896;2022-12-18T19:34:18;-5.70;99.90
13330;DHT22;6734;48.638;8.896;2022-12-18T19:36:43;-4.50;99.90
13330;DHT22;6734;48.638;8.896;2022-12-18T19:39:14;-4.40;99.90
13330;DHT22;6734;48.638;8.896;2022-12-18T19:41:40;-4.50;99.90
13330;DHT22;6734;48.638;8.896;2022-12-18T19:44:08;-4.40;99.90
13330;DHT22;6734;48.638;8.896;2022-12-18T19:46:35;-4.50;99.90
13330;DHT22;6734;48.638;8.896;2022-12-18T19:49:00;-4.40;99.90
13330;DHT22;6734;48.638;8.896;2022-12-18T19:51:29;-4.50;99.90
13330;DHT22;6734;48.638;8.896;2022-12-18T19:53:56;-4.50;99.90
13330;DHT22;6734;48.638;8.896;2022-12-18T19:56:24;-4.20;99.90
13330;DHT22;6734;48.638;8.896;2022-12-18T19:58:51;-4.00;99.90
13330;DHT22;6734;48.638;8.896;2022-12-18T20:01:18;-4.20;99.90
13330;DHT22;6734;48.638;8.896;2022-12-18T20:03:44;-4.50;99.90
13330;DHT22;6734;48.638;8.896;2022-12-18T20:08:37;-4.50;99.90
13330;DHT22;6734;48.638;8.896;2022-12-18T20:11:03;-4.60;99.90
13330;DHT22;6734;48.638;8.896;2022-12-18T20:13:28;-4.50;99.90
13330;DHT22;6734;48.638;8.896;2022-12-18T20:15:54;-4.50;99.90
13330;DHT22;6734;48.638;8.896;2022-12-18T20:18:20;-4.50;99.90
13330;DHT22;6734;48.638;8.896;2022-12-18T20:20:45;-4.40;99.90
13330;DHT22;6734;48.638;8.896;2022-12-18T20:23:11;-4.40;99.90
13330;DHT22;6734;48.638;8.896;2022-12-18T20:25:37;-2.10;99.90
13330;DHT22;6734;48.638;8.896;2022-12-18T20:28:03;-4.40;99.90
13330;DHT22;6734;48.638;8.896;2022-12-18T20:30:29;-4.30;99.90
13330;DHT22;6734;48.638;8.896;2022-12-18T20:32:55;-4.40;99.90
13330;DHT22;6734;48.638;8.896;2022-12-18T20:35:20;-4.40;99.90
13330;DHT22;6734;48.638;8.896;2022-12-18T20:37:46;-4.40;99.90
13330;DHT22;6734;48.638;8.896;2022-12-18T20:40:12;-4.30;99.90
13330;DHT22;6734;48.638;8.896;2022-12-18T20:42:37;-4.40;99.90
13330;DHT22;6734;48.638;8.896;2022-12-18T20:45:04;-4.40;99.90
13330;DHT22;6734;48.638;8.896;2022-12-18T20:49:55;-4.40;99.90
13330;DHT22;6734;48.638;8.896;2022-12-18T20:52:21;-4.40;99.90
13330;DHT22;6734;48.638;8.896;2022-12-18T20:54:47;-4.30;99.90
13330;DHT22;6734;48.638;8.896;2022-12-18T20:57:13;-4.30;99.90
13330;DHT22;6734;48.638;8.896;2022-12-18T20:59:39;-4.30;99.90
13330;DHT22;6734;48.638;8.896;2022-12-18T21:02:04;-4.30;99.90
13330;DHT22;6734;48.638;8.896;2022-12-18T21:04:30;-4.30;99.90
13330;DHT22;6734;48.638;8.896;2022-12-18T21:06:56;-4.30;99.90
13330;DHT22;6734;48.638;8.896;2022-12-18T21:09:22;-4.20;99.90
13330;DHT22;6734;48.638;8.896;2022-12-18T21:11:48;-4.20;99.90
13330;DHT22;6734;48.638;8.896;2022-12-18T21:14:32;-4.20;99.90
13330;DHT22;6734;48.638;8.896;2022-12-18T21:16:58;-4.20;99.90
13330;DHT22;6734;48.638;8.896;2022-12-18T21:19:27;-4.20;99.90
13330;DHT22;6734;48.638;8.896;2022-12-18T21:21:55;-4.20;99.90
13330;DHT22;6734;48.638;8.896;2022-12-18T21:24:21;-4.20;99.90
13330;DHT22;6734;48.638;8.896;2022-12-18T21:26:48;-4.10;99.90
13330;DHT22;6734;48.638;8.896;2022-12-18T21:29:16;-4.10;99.90
13330;DHT22;6734;48.638;8.896;2022-12-18T21:31:44;-4.00;99.90
13330;DHT22;6734;48.638;8.896;2022-12-18T21:34:24;-3.90;99.90
13330;DHT22;6734;48.638;8.896;2022-12-18T21:36:51;-3.90;99.90
13330;DHT22;6734;48.638;8.896;2022-12-18T21:39:17;-3.90;99.90
13330;DHT22;6734;48.638;8.896;2022-12-18T21:41:43;-3.90;99.90
13330;DHT22;6734;48.638;8.896;2022-12-18T21:44:28;-3.80;99.90
13330;DHT22;6734;48.638;8.896;2022-12-18T21:46:53;-3.80;99.90
13330;DHT22;6734;48.638;8.896;2022-12-18T21:49:19;-3.70;99.90
13330;DHT22;6734;48.638;8.896;2022-12-18T21:51:50;-3.70;99.90
13330;DHT22;6734;48.638;8.896;2022-12-18T21:54:17;-3.50;99.90
13330;DHT22;6734;48.638;8.896;2022-12-18T21:56:53;-3.50;99.90
13330;DHT22;6734;48.638;8.896;2022-12-18T22:04:11;-3.50;99.90
13330;DHT22;6734;48.638;8.896;2022-12-18T22:06:37;-3.40;99.90
13330;DHT22;6734;48.638;8.896;2022-12-18T22:09:03;-3.40;99.90